Terminal Aerodrome Forecast
Issued by NWS

Home | Current Version | Previous Version | Text Only | Print | Product List | Glossary On
Versions: 1 2 3 4 5 6 7 8 9 10 11 12 13 14 15
000
FTUS46 KSEW 230520
TAFPAE
TAF
KPAE 230520Z 2306/2406 34008KT P6SM SCT250
     FM231100 16003KT P6SM OVC008
      TEMPO 2313/2316 5SM BR OVC006
     FM231800 22006KT P6SM SCT012 BKN030 BKN250
     FM232100 25007KT P6SM SCT035 BKN250
     FM240000 33006KT P6SM SCT035 BKN250=

USA.gov is the U.S. government's official web portal to all federal, state and local government web resources and services.